Time;durP1;ratioP1;P1;durP2;ratioP2;P2;SDS_P1;SDS_P2;PMS_P1;PMS_P2;Temp;Humidity;BMP_temperature;BMP_pressure;BME280_temperature;BME280_humidity;BME280_pressure;Samples;Min_cycle;Max_cycle;Signal;HPM_P1;HPM_P2
2023/04/28 00:00:26;;;;;;;6.43;2.90;;;10.40;99.90;;;;;;4952479;28;20027;-76
2023/04/28 00:02:52;;;;;;;5.03;2.63;;;10.30;99.90;;;;;;4952468;29;20055;-76
2023/04/28 00:05:18;;;;;;;3.03;2.65;;;10.30;99.90;;;;;;4952214;29;20127;-76
2023/04/28 00:07:44;;;;;;;4.18;2.58;;;10.30;99.90;;;;;;4951800;28;20023;-77
2023/04/28 00:10:10;;;;;;;2.85;2.50;;;10.30;99.90;;;;;;4952548;28;20037;-77
2023/04/28 00:12:36;;;;;;;5.03;2.75;;;10.30;99.90;;;;;;4953701;28;20488;-78
2023/04/28 00:15:02;;;;;;;6.68;2.22;;;10.20;99.90;;;;;;4952359;28;20031;-77
2023/04/28 00:17:28;;;;;;;8.13;2.58;;;10.20;99.90;;;;;;4952084;28;20086;-77
2023/04/28 00:19:53;;;;;;;3.47;2.70;;;10.10;99.90;;;;;;4952655;29;20023;-78
2023/04/28 00:22:19;;;;;;;6.47;2.22;;;10.10;99.90;;;;;;4953520;28;20023;-77
2023/04/28 00:24:45;;;;;;;4.45;3.05;;;10.00;99.90;;;;;;4951918;28;20071;-77
2023/04/28 00:27:11;;;;;;;8.45;2.95;;;10.10;99.90;;;;;;4953893;28;20031;-77
2023/04/28 00:29:36;;;;;;;3.40;2.70;;;10.10;99.90;;;;;;4952486;29;20028;-76
2023/04/28 00:32:02;;;;;;;4.55;2.67;;;10.00;99.90;;;;;;4952560;29;20023;-77
2023/04/28 00:34:32;;;;;;;3.47;2.70;;;10.00;99.90;;;;;;4954111;28;20035;-77
2023/04/28 00:36:57;;;;;;;7.18;3.35;;;10.00;99.90;;;;;;4953142;28;20123;-77
2023/04/28 00:39:24;;;;;;;4.22;2.75;;;10.00;99.90;;;;;;4952576;29;20106;-78
2023/04/28 00:41:50;;;;;;;5.57;2.65;;;10.00;99.90;;;;;;4953137;28;20019;-78
2023/04/28 00:44:16;;;;;;;4.55;2.72;;;10.00;99.90;;;;;;4952971;29;20129;-78
2023/04/28 00:46:41;;;;;;;4.68;2.85;;;10.10;99.90;;;;;;4954257;28;20030;-78
2023/04/28 00:49:08;;;;;;;3.90;2.90;;;10.00;99.90;;;;;;4953866;28;20495;-78
2023/04/28 00:51:33;;;;;;;3.78;3.20;;;10.10;99.90;;;;;;4954371;28;20526;-77
2023/04/28 00:53:59;;;;;;;5.05;3.05;;;10.10;99.90;;;;;;4954371;28;20035;-78
2023/04/28 00:56:29;;;;;;;3.10;2.70;;;10.00;99.90;;;;;;4952680;29;20123;-78
2023/04/28 00:58:55;;;;;;;5.70;4.28;;;10.00;99.90;;;;;;4953953;28;20024;-78
2023/04/28 01:01:21;;;;;;;8.45;3.72;;;10.10;99.90;;;;;;4953031;29;20030;-78
2023/04/28 01:03:47;;;;;;;4.05;3.65;;;10.00;99.90;;;;;;4954282;28;20407;-78
2023/04/28 01:06:14;;;;;;;3.75;3.35;;;10.00;99.90;;;;;;4956490;28;20030;-78
2023/04/28 01:08:41;;;;;;;5.15;2.97;;;10.00;99.90;;;;;;4957606;28;20568;-78
2023/04/28 01:11:09;;;;;;;5.38;3.03;;;10.00;99.90;;;;;;4956967;28;20034;-77
2023/04/28 01:13:35;;;;;;;5.43;3.15;;;9.90;99.90;;;;;;4956739;28;20027;-77
2023/04/28 01:16:00;;;;;;;4.13;2.65;;;10.00;99.90;;;;;;4957138;28;20387;-78
2023/04/28 01:18:26;;;;;;;5.70;2.97;;;10.10;99.90;;;;;;4957384;28;20079;-77
2023/04/28 01:20:52;;;;;;;6.40;2.88;;;9.90;99.90;;;;;;4956162;29;20498;-77
2023/04/28 01:23:18;;;;;;;5.85;3.10;;;9.90;99.90;;;;;;4957564;28;20110;-78
2023/04/28 01:25:43;;;;;;;6.50;3.03;;;9.80;99.90;;;;;;4955534;28;20394;-77
2023/04/28 01:28:10;;;;;;;3.15;2.80;;;9.80;99.90;;;;;;4956270;28;20038;-77
2023/04/28 01:30:36;;;;;;;5.00;3.17;;;9.70;99.90;;;;;;4956313;28;20023;-77
2023/04/28 01:33:02;;;;;;;3.75;2.75;;;9.70;99.90;;;;;;4956224;28;20404;-77
2023/04/28 01:35:28;;;;;;;4.40;2.90;;;9.60;99.90;;;;;;4957101;28;20027;-78
2023/04/28 01:37:54;;;;;;;4.13;3.35;;;9.60;99.90;;;;;;4956902;28;20039;-78
2023/04/28 01:40:19;;;;;;;4.47;2.97;;;9.60;99.90;;;;;;4957644;28;20464;-78
2023/04/28 01:42:45;;;;;;;4.93;3.33;;;9.60;99.90;;;;;;4957283;28;20516;-78
2023/04/28 01:45:11;;;;;;;3.47;2.95;;;9.70;99.90;;;;;;4956164;29;20027;-77
2023/04/28 01:47:37;;;;;;;6.13;2.72;;;9.60;99.90;;;;;;4957222;28;20071;-77
2023/04/28 01:50:03;;;;;;;4.05;2.35;;;9.60;99.90;;;;;;4955976;29;20504;-78
2023/04/28 01:52:29;;;;;;;3.10;2.72;;;9.50;99.90;;;;;;4957065;28;20031;-77
2023/04/28 01:54:55;;;;;;;3.97;2.42;;;9.60;99.90;;;;;;4956791;28;20420;-78
2023/04/28 01:57:20;;;;;;;2.78;2.30;;;9.50;99.90;;;;;;4955502;28;20110;-78
2023/04/28 01:59:46;;;;;;;6.60;2.65;;;9.40;99.90;;;;;;4957455;28;20027;-77
2023/04/28 02:02:12;;;;;;;5.30;2.80;;;9.40;99.90;;;;;;4956117;28;20078;-77
2023/04/28 02:04:38;;;;;;;7.32;2.65;;;9.40;99.90;;;;;;4955806;28;20460;-77
2023/04/28 02:07:04;;;;;;;4.45;2.75;;;9.40;99.90;;;;;;4956789;28;20035;-77
2023/04/28 02:09:30;;;;;;;4.32;2.90;;;9.40;99.90;;;;;;4956802;28;20051;-77
2023/04/28 02:11:55;;;;;;;7.78;3.88;;;9.40;99.90;;;;;;4956087;29;20507;-77
2023/04/28 02:14:22;;;;;;;5.00;3.30;;;9.50;99.90;;;;;;4955100;28;20401;-74
2023/04/28 02:16:48;;;;;;;4.07;2.88;;;9.50;99.90;;;;;;4955743;28;20127;-77
2023/04/28 02:19:14;;;;;;;7.20;3.10;;;9.50;99.90;;;;;;4956533;28;20537;-78
2023/04/28 02:21:41;;;;;;;3.72;2.60;;;9.50;99.90;;;;;;4955654;28;20118;-77
2023/04/28 02:24:07;;;;;;;3.03;2.60;;;9.60;99.90;;;;;;4953664;29;20023;-77
2023/04/28 02:26:34;;;;;;;5.55;2.88;;;9.50;99.90;;;;;;4956262;28;20027;-78
2023/04/28 02:29:00;;;;;;;7.45;2.70;;;9.40;99.90;;;;;;4956824;28;20050;-78
2023/04/28 02:31:26;;;;;;;5.28;3.25;;;9.40;99.90;;;;;;4956493;28;20492;-77
2023/04/28 02:33:52;;;;;;;6.57;3.70;;;9.40;99.90;;;;;;4955559;29;20031;-77
2023/04/28 02:36:17;;;;;;;5.78;3.55;;;9.40;99.90;;;;;;4954887;28;20038;-77
2023/04/28 02:38:43;;;;;;;7.03;3.42;;;9.30;99.90;;;;;;4955806;28;20039;-78
2023/04/28 02:41:10;;;;;;;4.03;2.50;;;9.30;99.90;;;;;;4955541;29;20364;-77
2023/04/28 02:43:36;;;;;;;4.95;2.45;;;9.20;99.90;;;;;;4956571;28;20098;-77
2023/04/28 02:46:03;;;;;;;4.15;2.75;;;9.20;99.90;;;;;;4954775;29;20389;-78
2023/04/28 02:48:29;;;;;;;4.40;2.58;;;9.20;99.90;;;;;;4955876;28;20608;-77
2023/04/28 02:50:54;;;;;;;3.78;2.83;;;9.20;99.90;;;;;;4956361;28;20067;-78
2023/04/28 02:53:21;;;;;;;4.63;2.53;;;9.10;99.90;;;;;;4954970;28;20511;-77
2023/04/28 02:55:47;;;;;;;7.20;2.40;;;9.00;99.90;;;;;;4954883;29;20030;-78
2023/04/28 02:58:13;;;;;;;8.57;3.00;;;9.00;99.90;;;;;;4955722;28;20055;-77
2023/04/28 03:00:39;;;;;;;9.15;3.75;;;9.00;99.90;;;;;;4955944;28;20035;-78
2023/04/28 03:03:05;;;;;;;3.72;2.20;;;8.90;99.90;;;;;;4956059;28;20106;-78
2023/04/28 03:05:30;;;;;;;4.80;2.30;;;8.90;99.90;;;;;;4954541;28;20098;-78
2023/04/28 03:07:56;;;;;;;3.83;2.33;;;8.90;99.90;;;;;;4954313;28;20046;-77
2023/04/28 03:10:22;;;;;;;4.80;2.67;;;8.90;99.90;;;;;;4955914;28;20110;-77
2023/04/28 03:12:47;;;;;;;4.88;2.63;;;8.80;99.90;;;;;;4954799;29;20027;-77
2023/04/28 03:15:13;;;;;;;2.15;2.05;;;8.80;99.90;;;;;;4954880;29;20046;-78
2023/04/28 03:17:40;;;;;;;3.40;2.10;;;8.70;99.90;;;;;;4953621;28;20027;-78
2023/04/28 03:20:07;;;;;;;3.92;2.55;;;8.70;99.90;;;;;;4954644;29;20037;-78
2023/04/28 03:22:33;;;;;;;3.83;2.38;;;8.70;99.90;;;;;;4954395;29;20070;-78
2023/04/28 03:24:59;;;;;;;4.70;2.50;;;8.70;99.90;;;;;;4952976;29;20165;-78
2023/04/28 03:27:25;;;;;;;4.65;2.25;;;8.70;99.90;;;;;;4954631;28;20110;-78
2023/04/28 03:29:51;;;;;;;2.35;2.08;;;8.60;99.90;;;;;;4955596;28;20499;-77
2023/04/28 03:32:16;;;;;;;2.92;2.47;;;8.60;99.90;;;;;;4955651;28;20027;-78
2023/04/28 03:34:42;;;;;;;5.07;2.85;;;8.50;99.90;;;;;;4953712;29;20456;-77
2023/04/28 03:37:08;;;;;;;6.90;2.53;;;8.40;99.90;;;;;;4954886;28;20027;-77
2023/04/28 03:39:33;;;;;;;2.35;1.98;;;8.30;99.90;;;;;;4954681;28;20039;-77
2023/04/28 03:42:00;;;;;;;3.17;1.85;;;8.20;99.90;;;;;;4953886;28;20051;-77
2023/04/28 03:44:26;;;;;;;2.28;1.92;;;8.20;99.90;;;;;;4953314;29;20039;-76
2023/04/28 03:46:51;;;;;;;5.00;2.15;;;8.20;99.90;;;;;;4953429;28;20027;-77
2023/04/28 03:49:17;;;;;;;2.28;1.88;;;8.10;99.90;;;;;;4954218;28;20430;-77
2023/04/28 03:51:42;;;;;;;2.42;2.22;;;8.00;99.90;;;;;;4953512;29;20026;-78
2023/04/28 03:54:08;;;;;;;9.48;2.92;;;7.90;99.90;;;;;;4954803;28;20026;-77
2023/04/28 03:56:34;;;;;;;7.05;3.10;;;7.90;99.90;;;;;;4953141;28;20425;-77
2023/04/28 03:58:59;;;;;;;6.00;2.72;;;7.90;99.90;;;;;;4952742;28;20388;-78
2023/04/28 04:01:25;;;;;;;4.03;2.72;;;7.80;99.90;;;;;;4954473;28;20150;-77
2023/04/28 04:03:51;;;;;;;3.42;2.58;;;7.70;99.90;;;;;;4953426;28;20189;-78
2023/04/28 04:06:17;;;;;;;4.53;2.90;;;7.70;99.90;;;;;;4954408;28;20552;-76
2023/04/28 04:08:43;;;;;;;4.55;2.53;;;7.70;99.90;;;;;;4952342;28;20114;-77
2023/04/28 04:11:08;;;;;;;4.95;2.88;;;7.70;99.90;;;;;;4953201;29;20031;-77
2023/04/28 04:13:34;;;;;;;2.58;2.38;;;7.70;99.90;;;;;;4954573;28;20054;-77
2023/04/28 04:16:00;;;;;;;4.30;2.58;;;7.60;99.90;;;;;;4952112;29;20342;-78
2023/04/28 04:18:26;;;;;;;5.45;2.78;;;7.70;99.90;;;;;;4953653;28;20031;-77
2023/04/28 04:20:56;;;;;;;6.45;3.38;;;7.70;99.90;;;;;;4952870;29;20031;-76
2023/04/28 04:23:21;;;;;;;5.18;2.67;;;7.80;99.90;;;;;;4953004;29;20028;-78
2023/04/28 04:25:48;;;;;;;4.47;3.38;;;7.80;99.90;;;;;;4950946;28;20460;-78
2023/04/28 04:28:13;;;;;;;5.88;3.53;;;7.80;99.90;;;;;;4954023;28;20040;-78
2023/04/28 04:30:39;;;;;;;3.38;3.08;;;7.90;99.90;;;;;;4954487;28;20031;-78
2023/04/28 04:33:04;;;;;;;4.85;3.08;;;7.90;99.90;;;;;;4952972;29;20400;-77
2023/04/28 04:35:31;;;;;;;5.05;2.65;;;7.90;99.90;;;;;;4953014;29;20349;-78
2023/04/28 04:37:57;;;;;;;4.63;3.38;;;7.90;99.90;;;;;;4954034;28;20467;-78
2023/04/28 04:40:23;;;;;;;3.92;2.55;;;8.00;99.90;;;;;;4956012;29;20110;-79
2023/04/28 04:42:48;;;;;;;3.13;2.80;;;8.10;99.90;;;;;;4958118;29;20499;-77
2023/04/28 04:45:14;;;;;;;4.05;2.85;;;8.10;99.90;;;;;;4959485;28;20509;-78
2023/04/28 04:47:40;;;;;;;4.10;2.63;;;9.30;99.90;;;;;;4959475;28;20679;-78
2023/04/28 04:50:07;;;;;;;7.80;2.88;;;9.10;99.90;;;;;;4961297;28;20038;-78
2023/04/28 04:52:32;;;;;;;3.85;2.85;;;9.00;99.90;;;;;;4960192;28;20034;-77
2023/04/28 04:54:58;;;;;;;15.77;10.00;;;8.80;99.90;;;;;;4957156;29;20114;-76
2023/04/28 04:57:24;;;;;;;10.82;5.22;;;8.80;99.90;;;;;;4958369;28;20024;-76
2023/04/28 04:59:50;;;;;;;13.27;7.28;;;8.80;99.90;;;;;;4958170;28;20027;-78
2023/04/28 05:02:16;;;;;;;9.20;3.60;;;8.80;99.90;;;;;;4959209;29;20541;-76
2023/04/28 05:04:42;;;;;;;7.28;3.15;;;9.10;99.90;;;;;;4958591;29;20046;-76
2023/04/28 05:07:07;;;;;;;8.43;3.30;;;9.30;99.90;;;;;;4958085;28;20050;-76
2023/04/28 05:09:33;;;;;;;4.93;3.15;;;9.30;99.90;;;;;;4958086;28;20066;-76
2023/04/28 05:11:59;;;;;;;4.88;3.63;;;9.40;99.90;;;;;;4958942;28;20027;-76
2023/04/28 05:14:24;;;;;;;5.53;3.92;;;9.30;99.90;;;;;;4956723;29;20038;-77
2023/04/28 05:16:50;;;;;;;8.68;3.63;;;9.40;99.90;;;;;;4958465;28;20020;-76
2023/04/28 05:19:16;;;;;;;6.15;3.80;;;9.40;99.90;;;;;;4956943;28;20118;-76
2023/04/28 05:21:42;;;;;;;11.57;5.25;;;9.50;99.90;;;;;;4959102;28;20027;-76
2023/04/28 05:24:07;;;;;;;7.55;3.70;;;9.60;99.90;;;;;;4956456;29;20038;-77
2023/04/28 05:26:34;;;;;;;4.38;3.60;;;9.60;99.90;;;;;;4958658;28;20049;-76
2023/04/28 05:29:00;;;;;;;6.70;3.55;;;9.70;99.90;;;;;;4957450;28;20114;-77
2023/04/28 05:31:25;;;;;;;6.28;3.97;;;9.70;99.90;;;;;;4958784;28;20062;-76
2023/04/28 05:33:51;;;;;;;4.25;3.25;;;9.70;99.90;;;;;;4959077;28;20038;-76
2023/04/28 05:36:16;;;;;;;6.75;3.95;;;9.80;99.90;;;;;;4956547;28;20023;-76
2023/04/28 05:38:45;;;;;;;5.38;3.50;;;9.80;99.90;;;;;;4956752;28;20035;-76
2023/04/28 05:41:11;;;;;;;7.07;3.83;;;9.90;99.90;;;;;;4958324;28;20031;-78
2023/04/28 05:43:36;;;;;;;5.93;3.22;;;9.90;99.90;;;;;;4958169;29;20050;-77
2023/04/28 05:46:02;;;;;;;5.53;3.40;;;10.00;99.90;;;;;;4958902;28;20400;-77
2023/04/28 05:48:28;;;;;;;3.65;2.97;;;10.00;99.90;;;;;;4957734;28;20031;-78
2023/04/28 05:50:53;;;;;;;11.63;4.82;;;10.10;99.90;;;;;;4957177;28;20034;-77
2023/04/28 05:53:19;;;;;;;5.45;3.35;;;10.10;99.90;;;;;;4957427;28;20039;-77
2023/04/28 05:55:45;;;;;;;5.38;3.35;;;10.10;99.90;;;;;;4958998;29;20027;-77
2023/04/28 05:58:10;;;;;;;11.93;6.05;;;10.20;99.90;;;;;;4957821;29;20095;-77
2023/04/28 06:00:36;;;;;;;7.85;5.30;;;10.20;99.90;;;;;;4958581;29;20023;-77
2023/04/28 06:03:02;;;;;;;11.43;4.22;;;10.20;99.90;;;;;;4958381;29;20469;-77
2023/04/28 06:05:27;;;;;;;6.85;3.40;;;10.40;99.90;;;;;;4958226;28;20148;-77
2023/04/28 06:07:54;;;;;;;10.35;3.45;;;10.50;99.90;;;;;;4956697;29;20038;-77
2023/04/28 06:10:21;;;;;;;4.10;3.70;;;10.50;99.90;;;;;;4958466;28;20030;-78
2023/04/28 06:12:47;;;;;;;6.93;3.13;;;10.60;99.90;;;;;;4959161;28;20116;-78
2023/04/28 06:15:12;;;;;;;13.93;5.32;;;10.70;99.60;;;;;;4955844;29;20070;-77
2023/04/28 06:17:38;;;;;;;7.05;4.15;;;10.90;99.70;;;;;;4956116;29;20038;-77
2023/04/28 06:20:06;;;;;;;5.38;3.20;;;10.90;98.60;;;;;;4956906;29;20028;-77
2023/04/28 06:22:32;;;;;;;2.70;2.33;;;11.00;98.00;;;;;;4957372;28;20029;-77
2023/04/28 06:24:58;;;;;;;5.05;3.30;;;11.10;97.40;;;;;;4956400;29;20071;-77
2023/04/28 06:27:23;;;;;;;6.63;2.63;;;11.10;96.50;;;;;;4955169;29;20034;-79
2023/04/28 06:29:49;;;;;;;5.38;3.58;;;11.10;95.80;;;;;;4959726;29;20480;-79
2023/04/28 06:32:15;;;;;;;4.45;3.55;;;11.30;95.80;;;;;;4957068;29;20035;-77
2023/04/28 06:34:41;;;;;;;4.38;2.97;;;11.40;95.60;;;;;;4955268;29;20138;-78
2023/04/28 06:37:07;;;;;;;4.28;2.85;;;11.60;94.60;;;;;;4956884;29;20396;-77
2023/04/28 06:39:32;;;;;;;10.05;3.92;;;11.60;93.60;;;;;;4956492;29;20031;-76
2023/04/28 06:41:58;;;;;;;7.57;3.35;;;11.60;93.10;;;;;;4958090;29;20020;-76
2023/04/28 06:44:24;;;;;;;4.45;2.40;;;11.60;93.30;;;;;;4956434;29;20083;-77
2023/04/28 06:46:50;;;;;;;5.75;3.75;;;11.70;93.40;;;;;;4955909;29;20404;-76
2023/04/28 06:49:16;;;;;;;7.80;4.45;;;11.80;93.30;;;;;;4957171;28;20070;-77
2023/04/28 06:51:41;;;;;;;6.13;3.53;;;11.80;93.00;;;;;;4957136;29;20373;-77
2023/04/28 06:54:07;;;;;;;9.23;4.47;;;11.90;93.10;;;;;;4957586;29;20019;-78
2023/04/28 06:56:34;;;;;;;8.70;3.78;;;12.10;92.80;;;;;;4957019;29;20078;-78
2023/04/28 06:59:00;;;;;;;13.05;5.55;;;12.10;92.60;;;;;;4955293;29;20508;-77
2023/04/28 07:01:25;;;;;;;6.55;2.90;;;12.10;92.30;;;;;;4954740;28;20078;-78
2023/04/28 07:03:51;;;;;;;5.22;2.78;;;12.10;92.00;;;;;;4955481;29;20502;-77
2023/04/28 07:06:17;;;;;;;5.93;4.13;;;12.90;98.40;;;;;;4956938;29;20074;-76
2023/04/28 07:08:42;;;;;;;4.88;3.10;;;13.20;91.20;;;;;;4955760;29;20034;-78
2023/04/28 07:11:08;;;;;;;9.43;4.90;;;13.30;89.10;;;;;;4957128;29;20038;-78
2023/04/28 07:13:34;;;;;;;7.53;2.83;;;13.40;90.00;;;;;;4954987;29;20031;-80
2023/04/28 07:16:00;;;;;;;4.20;2.13;;;13.30;87.10;;;;;;4956447;29;20027;-78
2023/04/28 07:18:25;;;;;;;7.75;3.15;;;13.30;88.50;;;;;;4955629;29;20381;-78
2023/04/28 07:20:51;;;;;;;5.40;2.70;;;13.30;86.40;;;;;;4956156;29;20038;-76
2023/04/28 07:23:17;;;;;;;3.58;2.70;;;13.20;89.00;;;;;;4956485;29;20030;-78
2023/04/28 07:25:43;;;;;;;9.93;3.88;;;13.50;87.80;;;;;;4954819;29;20054;-75
2023/04/28 07:28:08;;;;;;;11.73;3.83;;;13.80;91.00;;;;;;4950410;29;20086;-76
2023/04/28 07:30:34;;;;;;;8.25;2.53;;;14.70;90.80;;;;;;4952442;29;20452;-76
2023/04/28 07:33:01;;;;;;;4.50;2.88;;;15.00;86.30;;;;;;4952550;29;20118;-75
2023/04/28 07:35:27;;;;;;;5.00;2.80;;;15.30;85.50;;;;;;4951835;29;20471;-75
2023/04/28 07:37:54;;;;;;;5.68;2.67;;;15.30;83.70;;;;;;4954336;28;20042;-77
2023/04/28 07:40:20;;;;;;;7.43;2.85;;;15.10;81.90;;;;;;4953732;29;20589;-78
2023/04/28 07:42:46;;;;;;;4.45;3.22;;;14.80;82.40;;;;;;4956131;28;20023;-77
2023/04/28 07:45:15;;;;;;;4.60;3.05;;;14.40;83.90;;;;;;4954572;29;20031;-77
2023/04/28 07:47:41;;;;;;;4.55;3.17;;;14.00;84.00;;;;;;4953960;28;20058;-77
2023/04/28 07:50:07;;;;;;;6.53;2.80;;;14.00;86.80;;;;;;4953845;29;20492;-77
2023/04/28 07:52:33;;;;;;;6.03;3.58;;;14.00;86.60;;;;;;4953220;29;20042;-77
2023/04/28 07:54:59;;;;;;;5.25;2.50;;;14.10;86.90;;;;;;4952595;29;20027;-74
2023/04/28 07:57:25;;;;;;;9.00;2.85;;;14.40;89.70;;;;;;4952999;28;20107;-75
2023/04/28 07:59:51;;;;;;;5.63;3.47;;;14.80;87.00;;;;;;4952657;29;20035;-74
2023/04/28 08:02:19;;;;;;;4.70;3.25;;;14.90;84.00;;;;;;4953411;28;20027;-75
2023/04/28 08:04:44;;;;;;;4.07;3.05;;;15.00;83.60;;;;;;4952859;28;20420;-74
2023/04/28 08:07:10;;;;;;;5.57;3.75;;;15.10;83.60;;;;;;4953423;28;20035;-74
2023/04/28 08:09:36;;;;;;;3.10;2.78;;;15.20;83.70;;;;;;4953203;28;20031;-75
2023/04/28 08:12:02;;;;;;;3.47;2.53;;;15.30;81.90;;;;;;4953432;28;20063;-75
2023/04/28 08:14:28;;;;;;;3.47;3.00;;;15.30;80.40;;;;;;4953130;28;20027;-75
2023/04/28 08:16:54;;;;;;;3.13;2.42;;;15.40;81.30;;;;;;4952496;28;20624;-74
2023/04/28 08:19:20;;;;;;;3.10;2.00;;;15.40;79.20;;;;;;4952266;29;20070;-75
2023/04/28 08:21:46;;;;;;;7.57;2.58;;;15.40;80.20;;;;;;4952840;29;20151;-75
2023/04/28 08:24:11;;;;;;;4.95;2.38;;;15.40;79.40;;;;;;4951988;29;20118;-75
2023/04/28 08:26:37;;;;;;;4.63;2.30;;;15.50;79.30;;;;;;4953479;29;20023;-75
2023/04/28 08:29:03;;;;;;;4.10;2.35;;;15.40;79.80;;;;;;4951865;29;20028;-75
2023/04/28 08:31:29;;;;;;;9.23;3.00;;;15.50;79.20;;;;;;4956875;28;20481;-77
2023/04/28 08:33:55;;;;;;;2.40;2.08;;;15.50;79.30;;;;;;4957096;28;20023;-77
2023/04/28 08:36:22;;;;;;;3.55;2.58;;;15.30;78.20;;;;;;4954446;29;20122;-77
2023/04/28 08:38:47;;;;;;;7.07;2.55;;;15.30;78.40;;;;;;4954537;29;20027;-77
2023/04/28 08:41:18;;;;;;;4.32;2.72;;;15.30;78.90;;;;;;4955976;29;20051;-77
2023/04/28 08:43:44;;;;;;;8.43;2.92;;;15.30;77.50;;;;;;4955980;28;20023;-77
2023/04/28 08:46:13;;;;;;;6.45;2.65;;;15.30;78.40;;;;;;4955917;28;20023;-77
2023/04/28 08:48:40;;;;;;;5.00;2.38;;;15.20;75.90;;;;;;4954286;28;20054;-77
2023/04/28 08:51:07;;;;;;;3.55;2.38;;;15.00;76.80;;;;;;4954072;29;20066;-77
2023/04/28 08:53:36;;;;;;;3.03;2.50;;;15.00;77.80;;;;;;4955815;28;20031;-77
2023/04/28 08:56:05;;;;;;;5.55;3.00;;;15.00;78.90;;;;;;4956086;29;20037;-77
2023/04/28 08:58:31;;;;;;;4.15;2.42;;;15.00;76.30;;;;;;4956060;28;20481;-77
2023/04/28 09:00:56;;;;;;;5.30;2.70;;;15.00;77.20;;;;;;4955283;29;20076;-78
2023/04/28 09:03:22;;;;;;;4.03;3.03;;;15.10;77.50;;;;;;4956521;29;20023;-75
2023/04/28 09:05:48;;;;;;;4.75;3.88;;;15.10;77.40;;;;;;4951400;29;20031;-76
2023/04/28 09:08:14;;;;;;;4.72;3.08;;;15.20;78.50;;;;;;4952580;29;20504;-76
2023/04/28 09:10:40;;;;;;;31.83;12.35;;;15.20;79.00;;;;;;4951257;29;20038;-75
2023/04/28 09:13:06;;;;;;;31.05;16.67;;;15.30;78.40;;;;;;4952892;28;20031;-76
2023/04/28 09:15:41;;;;;;;12.57;7.43;;;15.30;78.20;;;;;;4952219;28;20099;-76
2023/04/28 09:18:07;;;;;;;14.60;6.80;;;15.50;78.20;;;;;;4950591;29;20059;-75
2023/04/28 09:20:35;;;;;;;11.10;5.82;;;15.60;77.30;;;;;;4952799;28;20118;-76
2023/04/28 09:23:18;;;;;;;7.03;3.45;;;15.70;76.20;;;;;;4951340;28;20645;-76
2023/04/28 09:25:58;;;;;;;11.70;4.82;;;15.80;77.20;;;;;;4953390;28;20034;-76
2023/04/28 09:28:24;;;;;;;19.17;5.78;;;15.80;78.70;;;;;;4955169;28;20031;-76
2023/04/28 09:30:50;;;;;;;5.70;3.85;;;15.80;78.20;;;;;;4956108;28;20054;-76
2023/04/28 09:33:16;;;;;;;10.90;5.82;;;15.80;75.00;;;;;;4955970;29;20031;-75
2023/04/28 09:35:44;;;;;;;13.35;7.65;;;15.70;75.10;;;;;;4953820;28;20035;-75
2023/04/28 09:38:10;;;;;;;10.70;4.90;;;15.60;74.80;;;;;;4955302;28;20159;-75
2023/04/28 09:41:05;;;;;;;5.78;3.58;;;15.60;76.40;;;;;;4954589;29;20551;-76
2023/04/28 09:43:35;;;;;;;6.65;4.20;;;15.60;76.40;;;;;;4941843;29;20035;-75
2023/04/28 09:46:02;;;;;;;4.82;3.38;;;15.50;75.70;;;;;;4955579;29;20031;-75
2023/04/28 09:48:36;;;;;;;6.82;2.83;;;15.60;77.50;;;;;;4953738;28;20050;-74
2023/04/28 09:51:04;;;;;;;5.03;2.60;;;15.70;76.20;;;;;;4957607;28;20031;-77
2023/04/28 09:53:31;;;;;;;7.60;4.38;;;15.70;76.80;;;;;;4959005;28;20027;-76
2023/04/28 09:55:59;;;;;;;3.95;2.90;;;15.60;75.60;;;;;;4956637;29;20034;-77
2023/04/28 09:58:26;;;;;;;9.43;3.33;;;15.60;76.10;;;;;;4957701;28;20043;-77
2023/04/28 10:00:56;;;;;;;4.90;2.67;;;15.40;77.30;;;;;;4957546;28;20066;-77
2023/04/28 10:03:24;;;;;;;4.72;2.85;;;15.20;78.00;;;;;;4957038;28;20023;-77
2023/04/28 10:05:52;;;;;;;4.68;3.17;;;15.20;78.30;;;;;;4956926;28;20023;-77
2023/04/28 10:08:21;;;;;;;4.75;3.15;;;15.40;79.00;;;;;;4956434;28;20043;-76
2023/04/28 10:10:54;;;;;;;3.85;2.83;;;15.60;77.40;;;;;;4957604;28;20054;-77
2023/04/28 10:13:20;;;;;;;6.70;3.72;;;15.60;76.50;;;;;;4955819;29;20034;-77
2023/04/28 10:15:47;;;;;;;9.68;4.50;;;15.60;77.20;;;;;;4956399;28;20027;-75
2023/04/28 10:18:13;;;;;;;7.57;4.63;;;15.60;78.30;;;;;;4955607;29;20584;-76
2023/04/28 10:20:43;;;;;;;10.18;5.03;;;15.60;81.70;;;;;;4959131;28;20102;-77
2023/04/28 10:23:46;;;;;;;18.67;11.77;;;15.60;81.10;;;;;;4958552;28;20047;-75
2023/04/28 10:26:13;;;;;;;5.65;4.18;;;15.50;80.50;;;;;;4956352;28;20114;-76
2023/04/28 10:28:50;;;;;;;3.92;3.47;;;15.40;81.00;;;;;;4957655;28;20031;-76
2023/04/28 10:31:16;;;;;;;6.63;4.13;;;15.50;81.00;;;;;;4956739;28;20034;-77
2023/04/28 10:33:42;;;;;;;6.30;2.78;;;15.80;79.60;;;;;;4953733;29;20028;-77
2023/04/28 10:36:08;;;;;;;4.82;3.33;;;15.70;78.90;;;;;;4954856;28;20023;-77
2023/04/28 10:38:35;;;;;;;5.95;3.67;;;15.70;78.60;;;;;;4955760;28;20074;-77
2023/04/28 10:41:02;;;;;;;5.68;3.28;;;16.00;75.50;;;;;;4956840;28;20062;-77
2023/04/28 10:43:36;;;;;;;4.68;3.45;;;16.20;77.40;;;;;;4955538;29;20023;-76
2023/04/28 10:46:07;;;;;;;5.53;3.30;;;15.90;75.50;;;;;;4954997;29;20098;-77
2023/04/28 10:48:32;;;;;;;5.45;2.95;;;15.70;77.50;;;;;;4958135;28;20031;-77
2023/04/28 10:51:08;;;;;;;4.57;3.40;;;15.40;78.30;;;;;;4957578;29;20551;-78
2023/04/28 10:53:43;;;;;;;;;;;15.60;80.40;;;;;;4956675;28;20426;-77
2023/04/28 10:56:20;;;;;;;8.57;3.10;;;15.70;79.00;;;;;;4956098;28;20291;-77
2023/04/28 10:58:50;;;;;;;6.47;2.53;;;16.00;77.70;;;;;;4956636;28;20023;-77
2023/04/28 11:01:28;;;;;;;3.78;3.15;;;16.20;76.20;;;;;;4955209;29;20026;-77
2023/04/28 11:04:12;;;;;;;4.68;2.97;;;16.20;76.20;;;;;;4956679;28;20193;-77
2023/04/28 11:06:39;;;;;;;11.80;3.15;;;16.20;77.40;;;;;;4956509;28;20051;-77
2023/04/28 11:09:14;;;;;;;8.00;3.03;;;16.30;76.60;;;;;;4955970;28;20083;-77
2023/04/28 11:11:58;;;;;;;3.33;2.75;;;16.50;76.30;;;;;;4956756;29;20031;-77
2023/04/28 11:14:24;;;;;;;8.93;3.80;;;16.50;75.10;;;;;;4956487;29;20031;-78
2023/04/28 11:17:01;;;;;;;4.72;2.75;;;16.70;73.90;;;;;;4955559;29;20027;-77
2023/04/28 11:19:50;;;;;;;5.85;3.25;;;16.80;74.10;;;;;;4954178;29;20515;-77
2023/04/28 11:22:22;;;;;;;3.53;2.60;;;16.70;74.40;;;;;;4955216;28;20016;-76
2023/04/28 11:24:57;;;;;;;5.68;3.28;;;17.00;74.50;;;;;;4954644;28;20028;-77
2023/04/28 11:27:24;;;;;;;4.97;3.13;;;17.20;73.30;;;;;;4953521;28;20023;-77
2023/04/28 11:29:50;;;;;;;5.65;3.22;;;17.00;73.30;;;;;;4954291;29;20019;-77
2023/04/28 11:32:16;;;;;;;2.58;2.38;;;17.10;71.70;;;;;;4953865;29;20117;-77
2023/04/28 11:34:41;;;;;;;6.13;2.55;;;17.10;73.70;;;;;;4953476;29;20404;-76
2023/04/28 11:37:08;;;;;;;3.92;3.08;;;17.10;74.10;;;;;;4954999;29;20065;-76
2023/04/28 11:39:34;;;;;;;7.03;3.30;;;17.00;72.30;;;;;;4955007;28;20031;-76
2023/04/28 11:42:08;;;;;;;5.28;3.10;;;16.90;74.60;;;;;;4952425;29;20022;-76
2023/04/28 11:44:33;;;;;;;4.78;2.80;;;16.70;73.70;;;;;;4953347;29;20023;-76
2023/04/28 11:47:01;;;;;;;4.25;2.92;;;16.70;74.00;;;;;;4953516;28;20030;-77
2023/04/28 11:49:32;;;;;;;5.90;3.20;;;16.80;74.00;;;;;;4954367;28;20031;-77
2023/04/28 11:52:04;;;;;;;5.90;3.05;;;17.10;73.50;;;;;;4954316;28;20106;-76
2023/04/28 11:54:30;;;;;;;3.83;3.00;;;17.00;72.30;;;;;;4953091;29;20023;-78
2023/04/28 11:56:57;;;;;;;6.22;3.58;;;17.00;72.80;;;;;;4954312;28;20155;-77
2023/04/28 11:59:24;;;;;;;5.20;3.20;;;16.90;74.40;;;;;;4952475;29;20477;-76
2023/04/28 12:01:52;;;;;;;3.88;3.10;;;17.00;76.30;;;;;;4956021;28;20120;-76
2023/04/28 12:04:31;;;;;;;4.28;2.95;;;16.90;74.00;;;;;;4954505;29;20527;-75
2023/04/28 12:07:09;;;;;;;3.83;3.00;;;17.10;75.30;;;;;;4954430;29;20575;-78
2023/04/28 12:09:36;;;;;;;5.25;2.53;;;17.30;72.20;;;;;;4957487;28;20030;-77
2023/04/28 12:12:06;;;;;;;4.88;3.10;;;17.20;72.50;;;;;;4956598;28;20484;-78
2023/04/28 12:14:52;;;;;;;4.43;2.80;;;17.10;72.20;;;;;;4955517;28;20715;-77
2023/04/28 12:17:25;;;;;;;;;;;17.10;72.50;;;;;;4955862;28;20041;-78
2023/04/28 12:19:51;;;;;;;3.38;2.97;;;17.10;72.70;;;;;;4955400;28;19921;-77
2023/04/28 12:22:17;;;;;;;6.50;2.97;;;17.10;74.30;;;;;;4956452;29;20048;-77
2023/04/28 12:24:44;;;;;;;4.30;2.75;;;17.00;74.40;;;;;;4955340;29;20118;-77
2023/04/28 12:27:24;;;;;;;5.20;3.08;;;16.90;75.60;;;;;;4957031;28;20085;-78
2023/04/28 12:29:50;;;;;;;9.73;3.40;;;17.00;73.60;;;;;;4957793;28;20519;-77
2023/04/28 12:32:16;;;;;;;3.88;2.78;;;16.90;74.60;;;;;;4957097;28;20039;-77
2023/04/28 12:34:44;;;;;;;3.95;3.38;;;16.90;74.50;;;;;;4957125;28;20122;-78
2023/04/28 12:37:11;;;;;;;4.95;3.10;;;17.00;74.70;;;;;;4955980;29;20031;-78
2023/04/28 12:39:39;;;;;;;2.65;2.28;;;17.10;73.40;;;;;;4955284;29;20023;-78
2023/04/28 12:42:05;;;;;;;4.38;3.05;;;17.00;75.00;;;;;;4956571;28;20510;-77
2023/04/28 12:44:36;;;;;;;6.40;3.20;;;17.20;74.50;;;;;;4955773;29;20074;-78
2023/04/28 12:47:06;;;;;;;7.55;3.30;;;17.30;73.40;;;;;;4955894;29;20075;-78
2023/04/28 12:49:36;;;;;;;6.75;3.30;;;17.30;72.80;;;;;;4957016;28;20091;-78